Southeastern Grand Banks: Past 24 Hour Conditions

 

Blanc-Sablon Airport

04:00 AM AST 23 January 2017
Disclaimer

This table is a summary of hourly weather conditions for the past 24 hours.
Please note that these observations might not always be representative of weather conditions over their associated marine area.

Date / Time
(AST)
Wind(knots) Conditions Visibility(km) Pressure(kPa) Air tempC) Relative humidity(%) Dew pointC) Wind Chill
23 January 2017
4:00 N 11 Clear 24 101.2 -16 59 -22 -25
3:00 N 11 gust 20 Clear 24 101.2 -16 60 -22 -25
2:00 N 13 gust 19 Clear 24 101.1 -15 61 -21 -26
1:00 N 15 gust 22 Clear 24 101.1 -15 61 -21 -26
0:00 N 16 gust 26 Clear 24 101.1 -15 63 -21 -26
22 January 2017
23:00 N 19 gust 29 Clear 24 101.2 -15 67 -20 -26
22:00 N 19 gust 29 Clear 24 101.2 -14 68 -19 -26
21:00 NNW 20 gust 28 Clear 24 101.2 -14 69 -19 -26
20:00 NNW 20 gust 28 Mainly Clear 24 101.2 -14 69 -18 -26
19:00 NNW 19 gust 25 Clear 24 101.2 -13 67 -18 -24
18:00 NW 11 gust 18 Clear 24 101.3 -12 65 -18 -21
17:00 NNW 11 Mainly Clear 24 101.2 -11 65 -16 -19
16:00 NNW 8 Mainly Sunny 24 101.1 -10 69 -15 -17
15:00 NNW 16 gust 21 Mainly Sunny 24 101.1 -8 66 -14 -17
14:00 NNW 14 gust 21 Mainly Sunny 24 101.0 -7 66 -13 -15
13:00 NNW 19 gust 28 Cloudy 24 100.9 -7 71 -12 -17
12:00 N 12 gust 18 Cloudy 24 100.9 -6 69 -10 -13
11:00 NNW 14 gust 21 Drifting Snow 24 100.9 -6 72 -10 -13
10:00 NNE 15 gust 22 Drifting Snow 24 100.9 -5 71 -9 -12
9:00 N 17 gust 24 Light Snow 24 100.7 -4 75 -8 -12
8:00 NNE 18 gust 26 Light Snow 24 100.6 -3 76 -6 -10
7:00 N 14 Light Snow 23 100.4 -2 82 -5 -9
6:00 N 9 Light Snow 24 100.4 -3 82 -6 -8
5:00 N 11 gust 16 Cloudy 24 100.3 -3 81 -6 -10
4:00 N 7 Cloudy 24 100.3 -5 81 -7 -10

Zoom-in to make a selection

Map of Atlantic - Newfoundland marine weather areas Southwestern Grand Banks - 44138 Banquereau - 44139 Tail of the Bank - 44140 Nickerson Bank - 44251 Northeast Burgeo Bank - 44255 Blanc-Sablon Airport Cap Whittle Chevery Natashquan Airport Heath Point Miscou Island Grand Étang Ingonish Beach North Mountain St.Paul Island J.A. Douglas McCurdy Sydney Airport Charlottetown Airport East Point North Cape Argentia Bonavista Burgeo Cape Race Corner Brook Daniel's Harbour Englee Ferolle Point La Scie Port aux Basques Rocky Harbour Sagona Island St. Anthony Airport St. John's Int'l Airport St. Lawrence Stephenville Airport Twillingate Winterland Wreckhouse Cartwright Airport Mary's Harbour Grates Cove Pool's Island Marticot Island Long Pond Eskasoni (First Nations) Îles de la Madeleine Airport
Legend:
buoy Buoy
land station Land Station

Atlantic - Newfoundland Area

Another Region

What we are doing

Date modified: